sensor_id;sensor_type;location;lat;lon;timestamp;P1;durP1;ratioP1;P2;durP2;ratioP2
63320;SDS011;49449;48.800;9.534;2022-11-04T00:01:24;5.70;;;5.05;;
63320;SDS011;49449;48.800;9.534;2022-11-04T00:03:53;5.90;;;4.50;;
63320;SDS011;49449;48.800;9.534;2022-11-04T00:06:21;5.90;;;4.63;;
63320;SDS011;49449;48.800;9.534;2022-11-04T00:08:51;4.63;;;3.63;;
63320;SDS011;49449;48.800;9.534;2022-11-04T00:11:20;3.67;;;3.13;;
63320;SDS011;49449;48.800;9.534;2022-11-04T00:14:06;4.07;;;2.80;;
63320;SDS011;49449;48.800;9.534;2022-11-04T00:16:35;2.47;;;2.10;;
63320;SDS011;49449;48.800;9.534;2022-11-04T00:19:22;3.22;;;2.72;;
63320;SDS011;49449;48.800;9.534;2022-11-04T00:21:50;2.70;;;2.50;;
63320;SDS011;49449;48.800;9.534;2022-11-04T00:24:35;2.03;;;1.90;;
63320;SDS011;49449;48.800;9.534;2022-11-04T00:27:21;3.03;;;2.33;;
63320;SDS011;49449;48.800;9.534;2022-11-04T00:30:07;2.20;;;2.00;;
63320;SDS011;49449;48.800;9.534;2022-11-04T00:32:36;2.63;;;2.33;;
63320;SDS011;49449;48.800;9.534;2022-11-04T00:35:22;2.22;;;1.77;;
63320;SDS011;49449;48.800;9.534;2022-11-04T00:37:50;2.40;;;2.20;;
63320;SDS011;49449;48.800;9.534;2022-11-04T00:40:17;2.53;;;2.22;;
63320;SDS011;49449;48.800;9.534;2022-11-04T00:42:45;2.35;;;2.15;;
63320;SDS011;49449;48.800;9.534;2022-11-04T00:45:13;2.50;;;2.30;;
63320;SDS011;49449;48.800;9.534;2022-11-04T00:47:41;2.22;;;1.80;;
63320;SDS011;49449;48.800;9.534;2022-11-04T00:50:08;2.30;;;2.10;;
63320;SDS011;49449;48.800;9.534;2022-11-04T00:52:40;2.00;;;1.70;;
63320;SDS011;49449;48.800;9.534;2022-11-04T00:55:08;2.05;;;1.85;;
63320;SDS011;49449;48.800;9.534;2022-11-04T00:57:37;1.90;;;1.80;;
63320;SDS011;49449;48.800;9.534;2022-11-04T01:00:05;2.00;;;1.90;;
63320;SDS011;49449;48.800;9.534;2022-11-04T01:02:34;1.48;;;1.38;;
63320;SDS011;49449;48.800;9.534;2022-11-04T01:05:07;3.08;;;2.20;;
63320;SDS011;49449;48.800;9.534;2022-11-04T01:07:36;1.90;;;1.80;;
63320;SDS011;49449;48.800;9.534;2022-11-04T01:10:08;1.48;;;1.38;;
63320;SDS011;49449;48.800;9.534;2022-11-04T01:12:37;1.42;;;1.33;;
63320;SDS011;49449;48.800;9.534;2022-11-04T01:15:05;2.67;;;1.58;;
63320;SDS011;49449;48.800;9.534;2022-11-04T01:17:35;3.83;;;2.15;;
63320;SDS011;49449;48.800;9.534;2022-11-04T01:20:03;2.60;;;2.38;;
63320;SDS011;49449;48.800;9.534;2022-11-04T01:22:33;3.38;;;2.38;;
63320;SDS011;49449;48.800;9.534;2022-11-04T01:25:02;2.40;;;2.22;;
63320;SDS011;49449;48.800;9.534;2022-11-04T01:27:30;2.10;;;1.90;;
63320;SDS011;49449;48.800;9.534;2022-11-04T01:29:58;2.22;;;1.55;;
63320;SDS011;49449;48.800;9.534;2022-11-04T01:32:26;1.48;;;1.38;;
63320;SDS011;49449;48.800;9.534;2022-11-04T01:34:54;1.90;;;1.80;;
63320;SDS011;49449;48.800;9.534;2022-11-04T01:37:21;1.65;;;1.55;;
63320;SDS011;49449;48.800;9.534;2022-11-04T01:39:49;1.90;;;1.80;;
63320;SDS011;49449;48.800;9.534;2022-11-04T01:42:20;1.95;;;1.85;;
63320;SDS011;49449;48.800;9.534;2022-11-04T01:44:50;2.13;;;1.50;;
63320;SDS011;49449;48.800;9.534;2022-11-04T01:49:51;1.80;;;1.70;;
63320;SDS011;49449;48.800;9.534;2022-11-04T01:52:25;1.83;;;1.73;;
63320;SDS011;49449;48.800;9.534;2022-11-04T01:54:56;1.80;;;1.70;;
63320;SDS011;49449;48.800;9.534;2022-11-04T01:57:33;1.58;;;1.48;;
63320;SDS011;49449;48.800;9.534;2022-11-04T02:00:07;2.40;;;1.90;;
63320;SDS011;49449;48.800;9.534;2022-11-04T02:02:36;1.63;;;1.52;;
63320;SDS011;49449;48.800;9.534;2022-11-04T02:05:13;2.00;;;1.90;;
63320;SDS011;49449;48.800;9.534;2022-11-04T02:07:44;1.80;;;1.70;;
63320;SDS011;49449;48.800;9.534;2022-11-04T02:10:19;1.58;;;1.48;;
63320;SDS011;49449;48.800;9.534;2022-11-04T02:12:50;2.08;;;1.88;;
63320;SDS011;49449;48.800;9.534;2022-11-04T02:15:19;1.55;;;1.30;;
63320;SDS011;49449;48.800;9.534;2022-11-04T02:18:00;1.80;;;1.70;;
63320;SDS011;49449;48.800;9.534;2022-11-04T02:20:40;2.10;;;1.90;;
63320;SDS011;49449;48.800;9.534;2022-11-04T02:26:36;1.75;;;1.65;;
63320;SDS011;49449;48.800;9.534;2022-11-04T02:29:35;1.85;;;1.75;;
63320;SDS011;49449;48.800;9.534;2022-11-04T02:32:11;1.85;;;1.77;;
63320;SDS011;49449;48.800;9.534;2022-11-04T02:34:49;1.60;;;1.50;;
63320;SDS011;49449;48.800;9.534;2022-11-04T02:37:28;1.30;;;1.10;;
63320;SDS011;49449;48.800;9.534;2022-11-04T02:40:04;1.30;;;1.20;;
63320;SDS011;49449;48.800;9.534;2022-11-04T02:42:38;1.70;;;1.60;;
63320;SDS011;49449;48.800;9.534;2022-11-04T02:45:14;1.63;;;1.52;;
63320;SDS011;49449;48.800;9.534;2022-11-04T02:47:48;1.30;;;1.20;;
63320;SDS011;49449;48.800;9.534;2022-11-04T02:50:22;1.90;;;1.77;;
63320;SDS011;49449;48.800;9.534;2022-11-04T02:52:58;1.42;;;1.33;;
63320;SDS011;49449;48.800;9.534;2022-11-04T02:55:31;1.55;;;1.45;;
63320;SDS011;49449;48.800;9.534;2022-11-04T02:58:04;1.48;;;1.38;;
63320;SDS011;49449;48.800;9.534;2022-11-04T03:00:42;1.33;;;1.33;;
63320;SDS011;49449;48.800;9.534;2022-11-04T03:03:12;2.13;;;2.03;;
63320;SDS011;49449;48.800;9.534;2022-11-04T03:05:45;5.18;;;3.17;;
63320;SDS011;49449;48.800;9.534;2022-11-04T03:08:16;4.40;;;3.00;;
63320;SDS011;49449;48.800;9.534;2022-11-04T03:10:49;2.42;;;2.22;;
63320;SDS011;49449;48.800;9.534;2022-11-04T03:15:50;7.20;;;4.82;;
63320;SDS011;49449;48.800;9.534;2022-11-04T03:18:25;8.40;;;6.18;;
63320;SDS011;49449;48.800;9.534;2022-11-04T03:21:00;6.05;;;4.25;;
63320;SDS011;49449;48.800;9.534;2022-11-04T03:23:31;4.10;;;2.97;;
63320;SDS011;49449;48.800;9.534;2022-11-04T03:26:01;3.10;;;2.75;;
63320;SDS011;49449;48.800;9.534;2022-11-04T03:28:37;2.97;;;2.45;;
63320;SDS011;49449;48.800;9.534;2022-11-04T03:31:12;2.80;;;2.13;;
63320;SDS011;49449;48.800;9.534;2022-11-04T03:33:50;2.22;;;2.03;;
63320;SDS011;49449;48.800;9.534;2022-11-04T03:36:19;2.00;;;1.88;;
63320;SDS011;49449;48.800;9.534;2022-11-04T03:38:49;1.80;;;1.70;;
63320;SDS011;49449;48.800;9.534;2022-11-04T03:41:18;1.88;;;1.73;;
63320;SDS011;49449;48.800;9.534;2022-11-04T03:43:53;1.58;;;1.50;;
63320;SDS011;49449;48.800;9.534;2022-11-04T03:46:29;1.80;;;1.70;;
63320;SDS011;49449;48.800;9.534;2022-11-04T03:48:57;2.13;;;1.83;;
63320;SDS011;49449;48.800;9.534;2022-11-04T03:51:26;1.50;;;1.40;;
63320;SDS011;49449;48.800;9.534;2022-11-04T03:53:53;1.73;;;1.63;;
63320;SDS011;49449;48.800;9.534;2022-11-04T03:56:27;1.83;;;1.73;;
63320;SDS011;49449;48.800;9.534;2022-11-04T03:59:11;1.70;;;1.48;;
63320;SDS011;49449;48.800;9.534;2022-11-04T04:02:09;2.10;;;1.90;;
63320;SDS011;49449;48.800;9.534;2022-11-04T04:04:43;2.38;;;1.90;;
63320;SDS011;49449;48.800;9.534;2022-11-04T04:07:23;1.67;;;1.58;;
63320;SDS011;49449;48.800;9.534;2022-11-04T04:15:00;2.45;;;1.60;;
63320;SDS011;49449;48.800;9.534;2022-11-04T04:17:35;2.63;;;1.48;;
63320;SDS011;49449;48.800;9.534;2022-11-04T04:20:06;1.40;;;1.40;;
63320;SDS011;49449;48.800;9.534;2022-11-04T04:22:39;1.38;;;1.00;;
63320;SDS011;49449;48.800;9.534;2022-11-04T04:25:11;1.42;;;1.33;;
63320;SDS011;49449;48.800;9.534;2022-11-04T04:28:00;1.58;;;1.48;;
63320;SDS011;49449;48.800;9.534;2022-11-04T04:30:32;1.70;;;1.60;;
63320;SDS011;49449;48.800;9.534;2022-11-04T04:33:04;1.98;;;1.88;;
63320;SDS011;49449;48.800;9.534;2022-11-04T04:35:37;1.60;;;1.42;;
63320;SDS011;49449;48.800;9.534;2022-11-04T04:38:12;1.30;;;1.20;;
63320;SDS011;49449;48.800;9.534;2022-11-04T04:41:03;1.38;;;1.38;;
63320;SDS011;49449;48.800;9.534;2022-11-04T04:43:54;1.70;;;1.60;;
63320;SDS011;49449;48.800;9.534;2022-11-04T04:46:43;1.70;;;1.60;;
63320;SDS011;49449;48.800;9.534;2022-11-04T04:51:43;2.13;;;1.50;;
63320;SDS011;49449;48.800;9.534;2022-11-04T04:54:13;2.00;;;1.48;;
63320;SDS011;49449;48.800;9.534;2022-11-04T04:56:41;1.50;;;1.50;;
63320;SDS011;49449;48.800;9.534;2022-11-04T04:59:09;1.25;;;1.25;;
63320;SDS011;49449;48.800;9.534;2022-11-04T05:01:37;1.60;;;1.50;;
63320;SDS011;49449;48.800;9.534;2022-11-04T05:04:04;1.50;;;1.15;;
63320;SDS011;49449;48.800;9.534;2022-11-04T05:06:33;1.27;;;1.17;;
63320;SDS011;49449;48.800;9.534;2022-11-04T05:09:01;1.00;;;1.00;;
63320;SDS011;49449;48.800;9.534;2022-11-04T05:11:29;2.10;;;2.00;;
63320;SDS011;49449;48.800;9.534;2022-11-04T05:13:57;1.67;;;1.58;;
63320;SDS011;49449;48.800;9.534;2022-11-04T05:16:25;2.22;;;1.67;;
63320;SDS011;49449;48.800;9.534;2022-11-04T05:18:52;2.05;;;1.90;;
63320;SDS011;49449;48.800;9.534;2022-11-04T05:21:20;1.67;;;1.58;;
63320;SDS011;49449;48.800;9.534;2022-11-04T05:23:49;1.85;;;1.75;;
63320;SDS011;49449;48.800;9.534;2022-11-04T05:26:17;2.55;;;1.38;;
63320;SDS011;49449;48.800;9.534;2022-11-04T05:28:45;1.50;;;1.40;;
63320;SDS011;49449;48.800;9.534;2022-11-04T05:31:13;2.35;;;1.33;;
63320;SDS011;49449;48.800;9.534;2022-11-04T05:33:41;1.77;;;1.67;;
63320;SDS011;49449;48.800;9.534;2022-11-04T05:36:09;1.25;;;1.20;;
63320;SDS011;49449;48.800;9.534;2022-11-04T05:38:39;2.05;;;1.83;;
63320;SDS011;49449;48.800;9.534;2022-11-04T05:41:09;1.52;;;1.42;;
63320;SDS011;49449;48.800;9.534;2022-11-04T05:43:50;1.88;;;1.77;;
63320;SDS011;49449;48.800;9.534;2022-11-04T05:46:18;1.92;;;1.73;;
63320;SDS011;49449;48.800;9.534;2022-11-04T05:48:46;1.58;;;1.48;;
63320;SDS011;49449;48.800;9.534;2022-11-04T05:51:14;1.50;;;1.35;;
63320;SDS011;49449;48.800;9.534;2022-11-04T05:53:44;2.03;;;1.80;;
63320;SDS011;49449;48.800;9.534;2022-11-04T05:56:13;1.48;;;1.48;;
63320;SDS011;49449;48.800;9.534;2022-11-04T05:58:46;1.20;;;1.10;;
63320;SDS011;49449;48.800;9.534;2022-11-04T06:01:22;1.35;;;1.25;;
63320;SDS011;49449;48.800;9.534;2022-11-04T06:03:51;1.35;;;1.25;;
63320;SDS011;49449;48.800;9.534;2022-11-04T06:06:20;1.90;;;1.77;;
63320;SDS011;49449;48.800;9.534;2022-11-04T06:08:49;1.70;;;1.60;;
63320;SDS011;49449;48.800;9.534;2022-11-04T06:11:19;1.60;;;1.50;;
63320;SDS011;49449;48.800;9.534;2022-11-04T06:13:47;1.58;;;1.48;;
63320;SDS011;49449;48.800;9.534;2022-11-04T06:16:15;2.15;;;1.50;;
63320;SDS011;49449;48.800;9.534;2022-11-04T06:18:43;2.65;;;1.40;;
63320;SDS011;49449;48.800;9.534;2022-11-04T06:21:19;3.75;;;1.60;;
63320;SDS011;49449;48.800;9.534;2022-11-04T06:23:50;1.67;;;1.58;;
63320;SDS011;49449;48.800;9.534;2022-11-04T06:26:20;2.28;;;1.50;;
63320;SDS011;49449;48.800;9.534;2022-11-04T06:28:52;2.40;;;2.20;;
63320;SDS011;49449;48.800;9.534;2022-11-04T06:31:20;2.08;;;1.90;;
63320;SDS011;49449;48.800;9.534;2022-11-04T06:33:47;1.98;;;1.85;;
63320;SDS011;49449;48.800;9.534;2022-11-04T06:36:15;2.10;;;2.00;;
63320;SDS011;49449;48.800;9.534;2022-11-04T06:38:43;1.35;;;1.25;;
63320;SDS011;49449;48.800;9.534;2022-11-04T06:41:12;2.10;;;1.95;;
63320;SDS011;49449;48.800;9.534;2022-11-04T06:43:42;1.83;;;1.73;;
63320;SDS011;49449;48.800;9.534;2022-11-04T06:46:22;1.65;;;1.50;;
63320;SDS011;49449;48.800;9.534;2022-11-04T06:48:52;2.55;;;1.88;;
63320;SDS011;49449;48.800;9.534;2022-11-04T06:51:22;1.42;;;1.33;;
63320;SDS011;49449;48.800;9.534;2022-11-04T06:53:50;2.22;;;1.77;;
63320;SDS011;49449;48.800;9.534;2022-11-04T06:56:17;3.95;;;1.65;;
63320;SDS011;49449;48.800;9.534;2022-11-04T06:58:47;2.08;;;1.63;;
63320;SDS011;49449;48.800;9.534;2022-11-04T07:01:15;2.10;;;1.65;;
63320;SDS011;49449;48.800;9.534;2022-11-04T07:03:47;2.40;;;1.77;;
63320;SDS011;49449;48.800;9.534;2022-11-04T07:06:15;2.03;;;1.60;;
63320;SDS011;49449;48.800;9.534;2022-11-04T07:08:44;1.58;;;1.48;;
63320;SDS011;49449;48.800;9.534;2022-11-04T07:11:12;1.73;;;1.63;;
63320;SDS011;49449;48.800;9.534;2022-11-04T07:13:40;1.40;;;1.30;;
63320;SDS011;49449;48.800;9.534;2022-11-04T07:16:11;2.25;;;2.03;;
63320;SDS011;49449;48.800;9.534;2022-11-04T07:18:39;2.10;;;1.90;;
63320;SDS011;49449;48.800;9.534;2022-11-04T07:21:07;4.50;;;2.72;;
63320;SDS011;49449;48.800;9.534;2022-11-04T07:23:38;3.40;;;2.85;;
63320;SDS011;49449;48.800;9.534;2022-11-04T07:26:08;2.90;;;2.28;;
63320;SDS011;49449;48.800;9.534;2022-11-04T07:28:38;4.25;;;2.60;;
63320;SDS011;49449;48.800;9.534;2022-11-04T07:31:08;3.83;;;2.50;;
63320;SDS011;49449;48.800;9.534;2022-11-04T07:33:39;3.33;;;2.95;;
63320;SDS011;49449;48.800;9.534;2022-11-04T07:36:09;2.80;;;2.60;;
63320;SDS011;49449;48.800;9.534;2022-11-04T07:38:38;3.50;;;3.20;;
63320;SDS011;49449;48.800;9.534;2022-11-04T07:41:08;5.50;;;3.13;;
63320;SDS011;49449;48.800;9.534;2022-11-04T07:43:38;3.20;;;2.88;;
63320;SDS011;49449;48.800;9.534;2022-11-04T07:46:06;5.30;;;3.03;;
63320;SDS011;49449;48.800;9.534;2022-11-04T07:48:36;5.43;;;3.03;;
63320;SDS011;49449;48.800;9.534;2022-11-04T07:51:07;4.07;;;3.10;;
63320;SDS011;49449;48.800;9.534;2022-11-04T07:53:37;4.35;;;3.65;;
63320;SDS011;49449;48.800;9.534;2022-11-04T07:56:06;3.50;;;3.20;;
63320;SDS011;49449;48.800;9.534;2022-11-04T07:58:37;5.43;;;3.42;;
63320;SDS011;49449;48.800;9.534;2022-11-04T08:01:06;4.10;;;2.85;;
63320;SDS011;49449;48.800;9.534;2022-11-04T08:03:36;3.83;;;3.28;;
63320;SDS011;49449;48.800;9.534;2022-11-04T08:06:06;4.65;;;3.70;;
63320;SDS011;49449;48.800;9.534;2022-11-04T08:08:35;3.50;;;3.20;;
63320;SDS011;49449;48.800;9.534;2022-11-04T08:11:04;3.65;;;2.80;;
63320;SDS011;49449;48.800;9.534;2022-11-04T08:13:36;3.65;;;3.10;;
63320;SDS011;49449;48.800;9.534;2022-11-04T08:16:05;5.00;;;2.67;;
63320;SDS011;49449;48.800;9.534;2022-11-04T08:18:35;3.85;;;2.47;;
63320;SDS011;49449;48.800;9.534;2022-11-04T08:21:03;3.15;;;2.85;;
63320;SDS011;49449;48.800;9.534;2022-11-04T08:23:32;4.43;;;2.90;;
63320;SDS011;49449;48.800;9.534;2022-11-04T08:26:06;3.78;;;3.00;;
63320;SDS011;49449;48.800;9.534;2022-11-04T08:28:34;3.05;;;2.35;;
63320;SDS011;49449;48.800;9.534;2022-11-04T08:31:04;4.78;;;3.15;;
63320;SDS011;49449;48.800;9.534;2022-11-04T08:33:34;3.38;;;2.90;;
63320;SDS011;49449;48.800;9.534;2022-11-04T08:36:02;2.67;;;2.38;;
63320;SDS011;49449;48.800;9.534;2022-11-04T08:38:33;4.03;;;3.13;;
63320;SDS011;49449;48.800;9.534;2022-11-04T08:41:02;5.13;;;3.60;;
63320;SDS011;49449;48.800;9.534;2022-11-04T08:43:32;3.90;;;3.35;;
63320;SDS011;49449;48.800;9.534;2022-11-04T08:46:02;3.58;;;3.28;;
63320;SDS011;49449;48.800;9.534;2022-11-04T08:48:32;3.58;;;3.03;;
63320;SDS011;49449;48.800;9.534;2022-11-04T08:51:01;2.30;;;2.10;;
63320;SDS011;49449;48.800;9.534;2022-11-04T08:53:29;2.53;;;2.33;;
63320;SDS011;49449;48.800;9.534;2022-11-04T08:55:59;2.50;;;2.30;;
63320;SDS011;49449;48.800;9.534;2022-11-04T08:58:26;2.90;;;1.83;;
63320;SDS011;49449;48.800;9.534;2022-11-04T09:00:54;2.80;;;1.95;;
63320;SDS011;49449;48.800;9.534;2022-11-04T09:03:24;2.28;;;2.17;;
63320;SDS011;49449;48.800;9.534;2022-11-04T09:05:53;2.10;;;2.00;;
63320;SDS011;49449;48.800;9.534;2022-11-04T09:08:23;4.03;;;3.15;;
63320;SDS011;49449;48.800;9.534;2022-11-04T09:10:51;5.35;;;3.72;;
63320;SDS011;49449;48.800;9.534;2022-11-04T09:13:21;3.08;;;2.78;;
63320;SDS011;49449;48.800;9.534;2022-11-04T09:18:20;2.95;;;2.50;;
63320;SDS011;49449;48.800;9.534;2022-11-04T09:20:48;2.67;;;2.47;;
63320;SDS011;49449;48.800;9.534;2022-11-04T09:23:16;5.07;;;3.03;;
63320;SDS011;49449;48.800;9.534;2022-11-04T09:25:44;4.78;;;3.03;;
63320;SDS011;49449;48.800;9.534;2022-11-04T09:28:12;3.30;;;2.20;;
63320;SDS011;49449;48.800;9.534;2022-11-04T09:30:42;3.50;;;3.03;;
63320;SDS011;49449;48.800;9.534;2022-11-04T09:33:12;3.05;;;2.30;;
63320;SDS011;49449;48.800;9.534;2022-11-04T09:35:42;2.65;;;1.88;;
63320;SDS011;49449;48.800;9.534;2022-11-04T09:38:09;2.55;;;2.08;;
63320;SDS011;49449;48.800;9.534;2022-11-04T09:40:38;2.17;;;2.00;;
63320;SDS011;49449;48.800;9.534;2022-11-04T09:43:09;2.97;;;1.98;;
63320;SDS011;49449;48.800;9.534;2022-11-04T09:45:48;2.53;;;2.05;;
63320;SDS011;49449;48.800;9.534;2022-11-04T09:48:18;3.28;;;2.25;;
63320;SDS011;49449;48.800;9.534;2022-11-04T09:50:52;2.47;;;2.28;;
63320;SDS011;49449;48.800;9.534;2022-11-04T09:53:25;2.60;;;2.40;;
63320;SDS011;49449;48.800;9.534;2022-11-04T09:55:58;2.78;;;2.17;;
63320;SDS011;49449;48.800;9.534;2022-11-04T09:58:31;2.40;;;2.10;;
63320;SDS011;49449;48.800;9.534;2022-11-04T10:01:05;2.47;;;2.17;;
63320;SDS011;49449;48.800;9.534;2022-11-04T10:03:51;2.40;;;2.20;;
63320;SDS011;49449;48.800;9.534;2022-11-04T10:06:31;2.00;;;1.90;;
63320;SDS011;49449;48.800;9.534;2022-11-04T10:09:14;2.70;;;1.80;;
63320;SDS011;49449;48.800;9.534;2022-11-04T10:11:52;2.40;;;1.98;;
63320;SDS011;49449;48.800;9.534;2022-11-04T10:14:39;1.70;;;1.60;;
63320;SDS011;49449;48.800;9.534;2022-11-04T10:17:38;5.82;;;3.55;;
63320;SDS011;49449;48.800;9.534;2022-11-04T10:22:55;6.20;;;3.03;;
63320;SDS011;49449;48.800;9.534;2022-11-04T10:25:29;3.28;;;2.08;;
63320;SDS011;49449;48.800;9.534;2022-11-04T10:28:06;3.60;;;2.60;;
63320;SDS011;49449;48.800;9.534;2022-11-04T10:30:38;1.42;;;1.33;;
63320;SDS011;49449;48.800;9.534;2022-11-04T10:33:12;1.63;;;1.52;;
63320;SDS011;49449;48.800;9.534;2022-11-04T10:35:51;2.53;;;1.40;;
63320;SDS011;49449;48.800;9.534;2022-11-04T10:38:31;2.35;;;1.70;;
63320;SDS011;49449;48.800;9.534;2022-11-04T10:41:11;1.60;;;1.50;;
63320;SDS011;49449;48.800;9.534;2022-11-04T10:43:46;1.52;;;1.40;;
63320;SDS011;49449;48.800;9.534;2022-11-04T10:46:19;11.43;;;5.85;;
63320;SDS011;49449;48.800;9.534;2022-11-04T10:49:02;2.42;;;2.10;;
63320;SDS011;49449;48.800;9.534;2022-11-04T10:51:35;3.05;;;1.40;;
63320;SDS011;49449;48.800;9.534;2022-11-04T10:54:07;0.95;;;0.95;;
63320;SDS011;49449;48.800;9.534;2022-11-04T10:56:39;2.80;;;1.83;;
63320;SDS011;49449;48.800;9.534;2022-11-04T10:59:15;3.45;;;1.52;;
63320;SDS011;49449;48.800;9.534;2022-11-04T11:01:49;1.48;;;1.38;;
63320;SDS011;49449;48.800;9.534;2022-11-04T11:04:27;2.20;;;1.50;;
63320;SDS011;49449;48.800;9.534;2022-11-04T11:06:56;1.70;;;1.27;;
63320;SDS011;49449;48.800;9.534;2022-11-04T11:09:26;2.15;;;1.95;;
63320;SDS011;49449;48.800;9.534;2022-11-04T11:11:56;3.22;;;1.67;;
63320;SDS011;49449;48.800;9.534;2022-11-04T11:14:33;2.83;;;1.90;;
63320;SDS011;49449;48.800;9.534;2022-11-04T11:17:15;1.80;;;1.70;;
63320;SDS011;49449;48.800;9.534;2022-11-04T11:19:48;2.75;;;1.67;;
63320;SDS011;49449;48.800;9.534;2022-11-04T11:22:33;1.45;;;1.30;;
63320;SDS011;49449;48.800;9.534;2022-11-04T11:25:13;1.27;;;1.17;;
63320;SDS011;49449;48.800;9.534;2022-11-04T11:27:52;2.67;;;1.30;;
63320;SDS011;49449;48.800;9.534;2022-11-04T11:30:24;3.45;;;1.73;;
63320;SDS011;49449;48.800;9.534;2022-11-04T11:32:55;2.50;;;1.70;;
63320;SDS011;49449;48.800;9.534;2022-11-04T11:35:29;1.65;;;1.40;;
63320;SDS011;49449;48.800;9.534;2022-11-04T11:38:13;1.75;;;1.17;;
63320;SDS011;49449;48.800;9.534;2022-11-04T11:40:50;1.50;;;1.40;;
63320;SDS011;49449;48.800;9.534;2022-11-04T11:43:36;2.83;;;1.23;;
63320;SDS011;49449;48.800;9.534;2022-11-04T11:46:07;3.30;;;1.50;;
63320;SDS011;49449;48.800;9.534;2022-11-04T11:48:37;1.48;;;1.15;;
63320;SDS011;49449;48.800;9.534;2022-11-04T11:51:10;4.53;;;1.17;;
63320;SDS011;49449;48.800;9.534;2022-11-04T11:56:15;1.90;;;1.17;;
63320;SDS011;49449;48.800;9.534;2022-11-04T11:58:51;3.03;;;1.52;;
63320;SDS011;49449;48.800;9.534;2022-11-04T12:01:48;1.00;;;0.90;;
63320;SDS011;49449;48.800;9.534;2022-11-04T12:04:20;4.07;;;2.45;;
63320;SDS011;49449;48.800;9.534;2022-11-04T12:07:11;3.50;;;1.38;;
63320;SDS011;49449;48.800;9.534;2022-11-04T12:10:08;1.08;;;1.08;;
63320;SDS011;49449;48.800;9.534;2022-11-04T12:12:58;2.72;;;1.60;;
63320;SDS011;49449;48.800;9.534;2022-11-04T12:15:41;4.55;;;1.58;;
63320;SDS011;49449;48.800;9.534;2022-11-04T12:18:30;3.40;;;1.13;;
63320;SDS011;49449;48.800;9.534;2022-11-04T12:21:10;1.55;;;1.20;;
63320;SDS011;49449;48.800;9.534;2022-11-04T12:23:45;3.13;;;1.70;;
63320;SDS011;49449;48.800;9.534;2022-11-04T12:26:23;2.22;;;1.35;;
63320;SDS011;49449;48.800;9.534;2022-11-04T12:29:07;3.25;;;1.55;;
63320;SDS011;49449;48.800;9.534;2022-11-04T12:31:48;1.48;;;1.08;;
63320;SDS011;49449;48.800;9.534;2022-11-04T12:34:29;3.13;;;1.63;;
63320;SDS011;49449;48.800;9.534;2022-11-04T12:37:08;2.65;;;1.60;;
63320;SDS011;49449;48.800;9.534;2022-11-04T12:39:51;2.85;;;1.58;;
63320;SDS011;49449;48.800;9.534;2022-11-04T12:42:35;1.45;;;1.02;;
63320;SDS011;49449;48.800;9.534;2022-11-04T12:45:17;2.13;;;1.85;;
63320;SDS011;49449;48.800;9.534;2022-11-04T12:47:54;1.85;;;1.40;;
63320;SDS011;49449;48.800;9.534;2022-11-04T12:50:36;2.03;;;1.60;;
63320;SDS011;49449;48.800;9.534;2022-11-04T12:53:21;3.08;;;1.52;;
63320;SDS011;49449;48.800;9.534;2022-11-04T12:56:12;1.20;;;1.08;;
63320;SDS011;49449;48.800;9.534;2022-11-04T12:58:59;3.00;;;1.10;;
63320;SDS011;49449;48.800;9.534;2022-11-04T13:02:03;2.05;;;1.40;;
63320;SDS011;49449;48.800;9.534;2022-11-04T13:04:45;1.77;;;1.20;;
63320;SDS011;49449;48.800;9.534;2022-11-04T13:07:18;2.40;;;1.25;;
63320;SDS011;49449;48.800;9.534;2022-11-04T13:09:52;4.07;;;1.35;;
63320;SDS011;49449;48.800;9.534;2022-11-04T13:12:26;2.78;;;1.42;;
63320;SDS011;49449;48.800;9.534;2022-11-04T13:14:59;4.65;;;2.05;;
63320;SDS011;49449;48.800;9.534;2022-11-04T13:17:30;3.10;;;1.92;;
63320;SDS011;49449;48.800;9.534;2022-11-04T13:20:02;2.55;;;1.80;;
63320;SDS011;49449;48.800;9.534;2022-11-04T13:22:40;2.60;;;1.90;;
63320;SDS011;49449;48.800;9.534;2022-11-04T13:25:12;15.80;;;10.25;;
63320;SDS011;49449;48.800;9.534;2022-11-04T13:27:45;9.48;;;7.22;;
63320;SDS011;49449;48.800;9.534;2022-11-04T13:30:18;5.05;;;3.70;;
63320;SDS011;49449;48.800;9.534;2022-11-04T13:32:50;3.97;;;1.60;;
63320;SDS011;49449;48.800;9.534;2022-11-04T13:35:25;2.90;;;1.40;;
63320;SDS011;49449;48.800;9.534;2022-11-04T13:38:06;2.75;;;1.50;;
63320;SDS011;49449;48.800;9.534;2022-11-04T13:40:41;2.25;;;1.38;;
63320;SDS011;49449;48.800;9.534;2022-11-04T13:43:19;4.70;;;1.65;;
63320;SDS011;49449;48.800;9.534;2022-11-04T13:46:17;2.47;;;1.48;;
63320;SDS011;49449;48.800;9.534;2022-11-04T13:48:51;3.53;;;1.50;;
63320;SDS011;49449;48.800;9.534;2022-11-04T13:51:23;1.42;;;1.33;;
63320;SDS011;49449;48.800;9.534;2022-11-04T13:54:05;1.50;;;1.33;;
63320;SDS011;49449;48.800;9.534;2022-11-04T13:56:35;2.65;;;1.38;;
63320;SDS011;49449;48.800;9.534;2022-11-04T13:59:15;2.15;;;0.98;;
63320;SDS011;49449;48.800;9.534;2022-11-04T14:01:48;2.17;;;1.17;;
63320;SDS011;49449;48.800;9.534;2022-11-04T14:04:38;1.50;;;1.20;;
63320;SDS011;49449;48.800;9.534;2022-11-04T14:07:07;2.38;;;1.40;;
63320;SDS011;49449;48.800;9.534;2022-11-04T14:12:27;2.05;;;1.27;;
63320;SDS011;49449;48.800;9.534;2022-11-04T14:15:03;1.38;;;1.20;;
63320;SDS011;49449;48.800;9.534;2022-11-04T14:20:25;1.48;;;1.38;;
63320;SDS011;49449;48.800;9.534;2022-11-04T14:22:56;1.15;;;1.10;;
63320;SDS011;49449;48.800;9.534;2022-11-04T14:25:28;1.63;;;1.02;;
63320;SDS011;49449;48.800;9.534;2022-11-04T14:27:58;1.80;;;1.40;;
63320;SDS011;49449;48.800;9.534;2022-11-04T14:30:30;3.85;;;1.55;;
63320;SDS011;49449;48.800;9.534;2022-11-04T14:33:20;1.83;;;1.15;;
63320;SDS011;49449;48.800;9.534;2022-11-04T14:36:16;3.05;;;1.23;;
63320;SDS011;49449;48.800;9.534;2022-11-04T14:38:51;10.18;;;4.97;;
63320;SDS011;49449;48.800;9.534;2022-11-04T14:41:28;20.00;;;8.20;;
63320;SDS011;49449;48.800;9.534;2022-11-04T14:44:00;8.48;;;3.65;;
63320;SDS011;49449;48.800;9.534;2022-11-04T14:46:39;8.13;;;4.10;;
63320;SDS011;49449;48.800;9.534;2022-11-04T14:49:19;6.82;;;2.67;;
63320;SDS011;49449;48.800;9.534;2022-11-04T14:51:59;4.30;;;2.25;;
63320;SDS011;49449;48.800;9.534;2022-11-04T14:54:29;3.03;;;1.85;;
63320;SDS011;49449;48.800;9.534;2022-11-04T14:57:06;4.68;;;3.33;;
63320;SDS011;49449;48.800;9.534;2022-11-04T14:59:39;8.18;;;5.00;;
63320;SDS011;49449;48.800;9.534;2022-11-04T15:02:13;10.35;;;6.10;;
63320;SDS011;49449;48.800;9.534;2022-11-04T15:04:44;7.28;;;3.97;;
63320;SDS011;49449;48.800;9.534;2022-11-04T15:07:22;12.68;;;6.80;;
63320;SDS011;49449;48.800;9.534;2022-11-04T15:09:59;22.00;;;11.95;;
63320;SDS011;49449;48.800;9.534;2022-11-04T15:12:31;12.00;;;6.55;;
63320;SDS011;49449;48.800;9.534;2022-11-04T15:15:27;7.78;;;4.35;;
63320;SDS011;49449;48.800;9.534;2022-11-04T15:18:03;3.17;;;2.42;;
63320;SDS011;49449;48.800;9.534;2022-11-04T15:20:35;3.22;;;1.83;;
63320;SDS011;49449;48.800;9.534;2022-11-04T15:23:10;4.85;;;1.40;;
63320;SDS011;49449;48.800;9.534;2022-11-04T15:25:47;4.10;;;1.35;;
63320;SDS011;49449;48.800;9.534;2022-11-04T15:28:17;2.80;;;1.40;;
63320;SDS011;49449;48.800;9.534;2022-11-04T15:30:58;2.38;;;1.80;;
63320;SDS011;49449;48.800;9.534;2022-11-04T15:33:29;5.70;;;1.67;;
63320;SDS011;49449;48.800;9.534;2022-11-04T15:36:02;1.50;;;1.20;;
63320;SDS011;49449;48.800;9.534;2022-11-04T15:38:33;4.07;;;2.00;;
63320;SDS011;49449;48.800;9.534;2022-11-04T15:41:01;4.40;;;1.63;;
63320;SDS011;49449;48.800;9.534;2022-11-04T15:43:44;3.10;;;1.75;;
63320;SDS011;49449;48.800;9.534;2022-11-04T15:46:16;1.77;;;1.52;;
63320;SDS011;49449;48.800;9.534;2022-11-04T15:49:00;2.50;;;1.63;;
63320;SDS011;49449;48.800;9.534;2022-11-04T15:51:33;1.73;;;1.40;;
63320;SDS011;49449;48.800;9.534;2022-11-04T15:54:04;3.72;;;2.17;;
63320;SDS011;49449;48.800;9.534;2022-11-04T15:56:42;4.72;;;2.22;;